Time;durP1;ratioP1;P1;durP2;ratioP2;P2;SDS_P1;SDS_P2;PMS_P1;PMS_P2;Temp;Humidity;BMP_temperature;BMP_pressure;BME280_temperature;BME280_humidity;BME280_pressure;Samples;Min_cycle;Max_cycle;Signal;HPM_P1;HPM_P2
2023/05/05 00:01:03;;;;;;;;;;;;;;;30.67;71.51;100638.09;5117610;27;70411;-35
2023/05/05 00:03:36;;;;;;;;;;;;;;;30.68;71.38;100637.03;5115863;27;66967;-36
2023/05/05 00:06:07;;;;;;;;;;;;;;;30.76;70.71;100643.19;5115394;27;70207;-37
2023/05/05 00:08:37;;;;;;;;;;;;;;;30.76;70.98;100646.75;5132625;27;66680;-35
2023/05/05 00:11:07;;;;;;;;;;;;;;;30.68;68.76;100653.28;5124839;27;70270;-37
2023/05/05 00:13:38;;;;;;;;;;;;;;;30.69;68.37;100657.63;5112029;27;65895;-37
2023/05/05 00:16:08;;;;;;;;;;;;;;;30.74;67.51;100654.25;5137346;27;71339;-36
2023/05/05 00:18:38;;;;;;;;;;;;;;;30.79;68.04;100661.72;5129470;27;65350;-36
2023/05/05 00:21:09;;;;;;;;;;;;;;;30.89;67.99;100662.03;5124152;27;69992;-37
2023/05/05 00:23:39;;;;;;;;;;;;;;;30.95;68.54;100666.53;5126752;27;65488;-37
2023/05/05 00:26:09;;;;;;;;;;;;;;;31.00;68.14;100674.00;5120658;27;69941;-37
2023/05/05 00:28:39;;;;;;;;;;;;;;;31.04;67.57;100686.03;5114846;27;65339;-37
2023/05/05 00:31:10;;;;;;;;;;;;;;;31.09;68.27;100684.31;5121388;27;70146;-36
2023/05/05 00:33:40;;;;;;;;;;;;;;;31.15;67.38;100686.09;5134738;27;66434;-37
2023/05/05 00:36:10;;;;;;;;;;;;;;;31.19;67.52;100685.66;5129667;27;70074;-40
2023/05/05 00:38:41;;;;;;;;;;;;;;;31.21;67.63;100691.69;5127245;27;66483;-36
2023/05/05 00:41:11;;;;;;;;;;;;;;;31.24;66.46;100691.22;5120994;27;70393;-36
2023/05/05 00:43:42;;;;;;;;;;;;;;;31.26;66.62;100694.50;5123141;27;66285;-35
2023/05/05 00:46:28;;;;;;;;;;;;;;;31.28;66.22;100693.22;5122440;27;70293;-36
2023/05/05 00:49:00;;;;;;;;;;;;;;;31.31;65.66;100691.94;5097755;27;66174;-35
2023/05/05 00:51:30;;;;;;;;;;;;;;;31.34;65.65;100699.63;5107395;27;69154;-37
2023/05/05 00:54:01;;;;;;;;;;;;;;;31.35;65.79;100693.16;5097502;27;65561;-37
2023/05/05 00:56:32;;;;;;;;;;;;;;;31.38;64.69;100692.75;5129851;27;70301;-37
2023/05/05 00:59:30;;;;;;;;;;;;;;;31.40;64.79;100690.63;5121057;27;67070;-35
2023/05/05 01:02:00;;;;;;;;;;;;;;;31.23;64.58;100662.44;5118319;27;69794;-34
2023/05/05 01:04:31;;;;;;;;;;;;;;;31.43;64.67;100694.78;5114765;27;66174;-36
2023/05/05 01:07:07;;;;;;;;;;;;;;;31.45;63.67;100698.88;5103842;27;69077;-36
2023/05/05 01:09:53;;;;;;;;;;;;;;;31.47;63.92;100704.09;5127735;27;66268;-36
2023/05/05 01:12:51;;;;;;;;;;;;;;;31.49;64.01;100705.53;5101129;27;62559;-37
2023/05/05 01:15:21;;;;;;;;;;;;;;;31.52;63.27;100704.25;5122393;27;66616;-38
2023/05/05 01:17:56;;;;;;;;;;;;;;;31.53;63.14;100711.31;5115185;27;70586;-36
2023/05/05 01:20:32;;;;;;;;;;;;;;;31.55;63.06;100704.59;5122106;27;66794;-37
2023/05/05 01:23:05;;;;;;;;;;;;;;;31.59;62.67;100704.94;5124162;27;70934;-36
2023/05/05 01:25:35;;;;;;;;;;;;;;;31.60;62.54;100714.75;5115663;27;65503;-36
2023/05/05 01:28:11;;;;;;;;;;;;;;;31.64;62.27;100717.84;5127112;27;70212;-35
2023/05/05 01:30:57;;;;;;;;;;;;;;;31.66;62.58;100721.16;5121482;27;65511;-38
2023/05/05 01:33:31;;;;;;;;;;;;;;;31.68;61.98;100710.88;5108052;27;68932;-35
2023/05/05 01:36:09;;;;;;;;;;;;;;;31.69;62.13;100704.41;5120123;27;66842;-36
2023/05/05 01:38:41;;;;;;;;;;;;;;;31.72;61.59;100710.19;5121648;27;70799;-35
2023/05/05 01:41:16;;;;;;;;;;;;;;;31.76;61.88;100721.41;5114606;27;66611;-37
2023/05/05 01:43:49;;;;;;;;;;;;;;;31.77;61.38;100723.91;5122419;27;70518;-35
2023/05/05 01:46:21;;;;;;;;;;;;;;;31.79;61.47;100710.94;5119163;27;66963;-36
2023/05/05 01:48:53;;;;;;;;;;;;;;;31.81;61.53;100708.00;5126834;27;69262;-36
2023/05/05 01:51:25;;;;;;;;;;;;;;;31.85;61.38;100714.63;5123768;27;65708;-36
2023/05/05 01:54:00;;;;;;;;;;;;;;;31.88;61.31;100711.44;5101045;27;70269;-37
2023/05/05 01:56:31;;;;;;;;;;;;;;;31.89;61.07;100704.94;5124115;27;66905;-36
2023/05/05 01:59:04;;;;;;;;;;;;;;;31.92;61.43;100707.22;5122846;27;70725;-35
2023/05/05 02:01:40;;;;;;;;;;;;;;;31.95;60.88;100705.94;5105719;27;66459;-36
2023/05/05 02:04:13;;;;;;;;;;;;;;;31.96;61.06;100705.72;5099644;27;70334;-35
2023/05/05 02:06:46;;;;;;;;;;;;;;;32.00;60.71;100706.06;5125490;27;66149;-36
2023/05/05 02:09:16;;;;;;;;;;;;;;;32.03;60.66;100705.59;5099914;27;70243;-36
2023/05/05 02:11:47;;;;;;;;;;;;;;;32.04;60.77;100691.81;5130390;27;65482;-36
2023/05/05 02:14:19;;;;;;;;;;;;;;;32.07;60.47;100685.09;5100062;27;69779;-37
2023/05/05 02:16:50;;;;;;;;;;;;;;;32.10;60.51;100678.38;5128239;27;66570;-36
2023/05/05 02:19:23;;;;;;;;;;;;;;;32.13;60.24;100694.19;5099274;27;69031;-37
2023/05/05 02:21:54;;;;;;;;;;;;;;;32.17;60.27;100679.09;5116206;27;65726;-36
2023/05/05 02:24:25;;;;;;;;;;;;;;;32.20;60.16;100684.03;5108670;27;70398;-36
2023/05/05 02:26:57;;;;;;;;;;;;;;;32.22;60.05;100682.75;5125954;27;66215;-36
2023/05/05 02:29:32;;;;;;;;;;;;;;;32.25;59.97;100676.84;5127077;27;69432;-37
2023/05/05 02:32:08;;;;;;;;;;;;;;;32.28;59.68;100676.38;5115975;27;66002;-39
2023/05/05 02:34:40;;;;;;;;;;;;;;;32.31;59.71;100675.09;5122840;27;70594;-37
2023/05/05 02:37:17;;;;;;;;;;;;;;;32.34;59.49;100674.63;5098827;27;67083;-37
2023/05/05 02:40:03;;;;;;;;;;;;;;;32.38;59.67;100669.56;5126285;27;69231;-36
2023/05/05 02:42:36;;;;;;;;;;;;;;;32.40;59.32;100676.41;5102979;27;66206;-35
2023/05/05 02:45:14;;;;;;;;;;;;;;;32.44;59.26;100674.88;5099071;27;70601;-35
2023/05/05 02:47:48;;;;;;;;;;;;;;;32.47;59.02;100673.59;5104992;27;66423;-35
2023/05/05 02:50:20;;;;;;;;;;;;;;;32.51;59.16;100671.22;5123019;27;71058;-35
2023/05/05 02:53:10;;;;;;;;;;;;;;;32.53;59.03;100667.22;5130182;27;66201;-34
2023/05/05 02:55:49;;;;;;;;;;;;;;;32.55;58.84;100670.53;5118132;27;70602;-36
2023/05/05 02:58:29;;;;;;;;;;;;;;;32.59;58.94;100654.59;5113257;27;66081;-36
2023/05/05 03:01:09;;;;;;;;;;;;;;;32.61;58.62;100657.91;5119246;27;70906;-37
2023/05/05 03:03:45;;;;;;;;;;;;;;;32.63;58.66;100655.78;5113706;27;66641;-37
2023/05/05 03:06:19;;;;;;;;;;;;;;;32.67;58.26;100657.75;5099179;27;70063;-36
2023/05/05 03:09:09;;;;;;;;;;;;;;;32.68;58.27;100651.28;5120561;27;65619;-36
2023/05/05 03:11:48;;;;;;;;;;;;;;;32.71;58.26;100652.69;5107251;27;70710;-36
2023/05/05 03:14:20;;;;;;;;;;;;;;;32.72;57.95;100644.28;5105914;27;66109;-36
2023/05/05 03:16:53;;;;;;;;;;;;;;;32.75;57.89;100651.13;5116232;27;69939;-36
2023/05/05 03:19:24;;;;;;;;;;;;;;;32.77;57.65;100645.47;5105766;27;65837;-36
2023/05/05 03:21:59;;;;;;;;;;;;;;;32.81;57.43;100642.03;5098460;27;68421;-36
2023/05/05 03:24:30;;;;;;;;;;;;;;;32.82;57.57;100643.69;5094129;27;67105;-35
2023/05/05 03:27:05;;;;;;;;;;;;;;;32.86;57.32;100634.00;5118382;27;70084;-37
2023/05/05 03:29:38;;;;;;;;;;;;;;;32.87;57.22;100635.63;5113026;27;66621;-37
2023/05/05 03:32:12;;;;;;;;;;;;;;;32.89;57.23;100633.50;5104464;27;69420;-37
2023/05/05 03:34:43;;;;;;;;;;;;;;;32.91;57.13;100630.56;5108499;27;67882;-36
2023/05/05 03:37:14;;;;;;;;;;;;;;;32.92;57.11;100637.63;5093258;27;70744;-36
2023/05/05 03:39:45;;;;;;;;;;;;;;;32.91;57.00;100636.81;5133291;27;65565;-37
2023/05/05 03:42:15;;;;;;;;;;;;;;;32.93;57.11;100634.69;5108374;27;69761;-35
2023/05/05 03:44:46;;;;;;;;;;;;;;;32.94;57.08;100636.34;5102830;27;66498;-37
2023/05/05 03:47:16;;;;;;;;;;;;;;;32.93;57.08;100626.53;5101552;27;71103;-36
2023/05/05 03:49:46;;;;;;;;;;;;;;;32.94;56.97;100630.91;5091369;27;65039;-36
2023/05/05 03:52:17;;;;;;;;;;;;;;;32.96;56.78;100627.09;5119533;27;69955;-36
2023/05/05 03:54:48;;;;;;;;;;;;;;;32.98;57.04;100622.28;5106677;27;65904;-36
2023/05/05 03:57:18;;;;;;;;;;;;;;;32.99;56.72;100621.19;5105567;27;69793;-36
2023/05/05 03:59:49;;;;;;;;;;;;;;;33.01;56.70;100616.38;5120189;27;66666;-36
2023/05/05 04:02:19;;;;;;;;;;;;;;;33.03;56.57;100620.50;5105395;27;70004;-37
2023/05/05 04:04:50;;;;;;;;;;;;;;;33.05;56.61;100609.41;5118467;27;65482;-36
2023/05/05 04:07:22;;;;;;;;;;;;;;;33.09;56.71;100610.56;5104552;27;70321;-37
2023/05/05 04:09:53;;;;;;;;;;;;;;;33.07;56.36;100601.81;5105793;27;67230;-37
2023/05/05 04:12:23;;;;;;;;;;;;;;;33.12;56.23;100588.34;5107455;27;69657;-36
2023/05/05 04:14:53;;;;;;;;;;;;;;;33.13;56.14;100596.25;5102457;27;66006;-35
2023/05/05 04:17:24;;;;;;;;;;;;;;;33.17;56.18;100591.16;5111316;27;69839;-38
2023/05/05 04:19:55;;;;;;;;;;;;;;;33.19;55.94;100580.06;5121922;27;65981;-38
2023/05/05 04:22:25;;;;;;;;;;;;;;;33.21;56.05;100577.91;5122571;27;70066;-37
2023/05/05 04:24:56;;;;;;;;;;;;;;;33.22;55.70;100572.22;5115747;27;66156;-36
2023/05/05 04:27:28;;;;;;;;;;;;;;;33.23;55.99;100568.44;5103965;27;69609;-36
2023/05/05 04:30:00;;;;;;;;;;;;;;;33.27;55.63;100564.16;5102945;27;66277;-39
2023/05/05 04:32:32;;;;;;;;;;;;;;;33.30;55.66;100562.88;5090571;27;68969;-40
2023/05/05 04:35:03;;;;;;;;;;;;;;;33.31;55.81;100548.19;5105406;27;66591;-36
2023/05/05 04:37:33;;;;;;;;;;;;;;;33.34;55.27;100547.69;5108469;27;70754;-36
2023/05/05 04:40:04;;;;;;;;;;;;;;;33.36;55.48;100534.69;5105993;27;65661;-36
2023/05/05 04:42:36;;;;;;;;;;;;;;;33.38;55.31;100535.28;5100203;27;69079;-39
2023/05/05 04:45:08;;;;;;;;;;;;;;;33.41;55.57;100531.25;5107310;27;66821;-37
2023/05/05 04:47:39;;;;;;;;;;;;;;;33.43;55.37;100523.66;5098055;27;70268;-37
2023/05/05 04:50:10;;;;;;;;;;;;;;;33.46;55.27;100528.59;5110165;27;66269;-36
2023/05/05 04:52:40;;;;;;;;;;;;;;;33.47;55.15;100525.63;5119686;27;70625;-36
2023/05/05 04:55:10;;;;;;;;;;;;;;;33.48;55.19;100521.00;5132519;27;66792;-37
2023/05/05 04:57:41;;;;;;;;;;;;;;;33.52;55.05;100516.75;5119028;27;69954;-37
2023/05/05 05:00:11;;;;;;;;;;;;;;;33.52;54.81;100503.16;5106389;27;65438;-37
2023/05/05 05:02:41;;;;;;;;;;;;;;;33.54;55.00;100501.00;5122417;27;70566;-37
2023/05/05 05:05:12;;;;;;;;;;;;;;;33.55;55.37;100486.38;5102181;27;65163;-36
2023/05/05 05:07:42;;;;;;;;;;;;;;;33.58;54.83;100496.75;5121994;27;70613;-38
2023/05/05 05:10:12;;;;;;;;;;;;;;;33.60;54.87;100481.00;5103587;27;66700;-38
2023/05/05 05:12:43;;;;;;;;;;;;;;;33.61;54.90;100476.38;5123779;27;70814;-38
2023/05/05 05:15:13;;;;;;;;;;;;;;;33.63;54.81;100476.94;5119800;27;67406;-38
2023/05/05 05:17:44;;;;;;;;;;;;;;;33.64;54.76;100465.81;5125161;27;69995;-37
2023/05/05 05:20:14;;;;;;;;;;;;;;;33.66;54.75;100463.69;5103511;27;67051;-35
2023/05/05 05:22:45;;;;;;;;;;;;;;;33.67;54.51;100456.34;5111272;27;69096;-38
2023/05/05 05:25:18;;;;;;;;;;;;;;;33.68;54.53;100450.63;5096128;27;66853;-37
2023/05/05 05:27:49;;;;;;;;;;;;;;;33.70;54.57;100448.50;5111855;27;70908;-37
2023/05/05 05:30:40;;;;;;;;;;;;;;;33.72;54.74;100435.50;5119316;27;66215;-39
2023/05/05 05:33:11;;;;;;;;;;;;;;;33.72;54.57;100424.59;5108388;27;69235;-38
2023/05/05 05:35:42;;;;;;;;;;;;;;;33.73;54.38;100423.53;5105725;27;66431;-37
2023/05/05 05:38:14;;;;;;;;;;;;;;;33.75;54.37;100415.94;5091860;27;70078;-37
2023/05/05 05:40:45;;;;;;;;;;;;;;;33.78;54.68;100412.72;5109287;27;66441;-37
2023/05/05 05:43:15;;;;;;;;;;;;;;;33.81;54.15;100412.22;5128913;27;69946;-37
2023/05/05 05:45:45;;;;;;;;;;;;;;;33.83;54.23;100408.44;5091787;27;65473;-37
2023/05/05 05:48:16;;;;;;;;;;;;;;;33.86;54.17;100397.84;5085598;27;70225;-36
2023/05/05 05:50:47;;;;;;;;;;;;;;;33.89;54.09;100399.25;5110306;27;66867;-37
2023/05/05 05:53:17;;;;;;;;;;;;;;;33.92;54.11;100385.16;5110273;27;69632;-36
2023/05/05 05:55:47;;;;;;;;;;;;;;;33.95;54.11;100390.91;5112004;27;66969;-37
2023/05/05 05:58:18;;;;;;;;;;;;;;;33.96;54.28;100386.28;5120483;27;69077;-39
2023/05/05 06:00:48;;;;;;;;;;;;;;;33.99;54.26;100380.31;5110041;27;65720;-37
2023/05/05 06:03:18;;;;;;;;;;;;;;;34.00;54.21;100371.09;5107668;27;69766;-37
2023/05/05 06:05:49;;;;;;;;;;;;;;;34.01;54.12;100367.28;5129397;27;65569;-38
2023/05/05 06:08:20;;;;;;;;;;;;;;;34.01;53.84;100368.09;5104885;27;69513;-36
2023/05/05 06:10:54;;;;;;;;;;;;;;;34.02;54.34;100352.63;5120056;27;66224;-37
2023/05/05 06:13:25;;;;;;;;;;;;;;;34.03;54.26;100346.91;5103276;27;70369;-36
2023/05/05 06:15:55;;;;;;;;;;;;;;;34.04;54.00;100342.28;5100381;27;66685;-37
2023/05/05 06:18:25;;;;;;;;;;;;;;;34.06;54.14;100342.06;5099375;27;70487;-37
2023/05/05 06:20:56;;;;;;;;;;;;;;;34.07;54.20;100336.34;5108710;27;67322;-36
2023/05/05 06:23:28;;;;;;;;;;;;;;;34.08;53.91;100324.41;5085795;27;69102;-38
2023/05/05 06:26:03;;;;;;;;;;;;;;;34.09;53.88;100320.59;5107974;27;66745;-38
2023/05/05 06:28:33;;;;;;;;;;;;;;;34.13;53.96;100320.91;5124804;27;69168;-38
2023/05/05 06:31:04;;;;;;;;;;;;;;;34.13;54.24;100313.59;5117249;27;64804;-38
2023/05/05 06:33:34;;;;;;;;;;;;;;;34.14;53.82;100296.16;5123986;27;69991;-37
2023/05/05 06:36:04;;;;;;;;;;;;;;;34.14;54.15;100301.63;5118448;27;66570;-36
2023/05/05 06:38:35;;;;;;;;;;;;;;;34.16;54.08;100291.28;5120609;27;70887;-36
2023/05/05 06:41:05;;;;;;;;;;;;;;;34.16;54.21;100288.56;5119165;27;65767;-36
2023/05/05 06:43:35;;;;;;;;;;;;;;;34.18;53.92;100283.66;5119263;27;70683;-36
2023/05/05 06:46:12;;;;;;;;;;;;;;;34.19;53.70;100277.16;5119773;27;66359;-38
2023/05/05 06:48:42;;;;;;;;;;;;;;;34.20;53.76;100273.34;5119722;27;70740;-36
2023/05/05 06:51:14;;;;;;;;;;;;;;;34.23;53.93;100270.13;5105621;27;66285;-37
2023/05/05 06:53:44;;;;;;;;;;;;;;;34.24;53.69;100266.34;5116631;27;69678;-36
2023/05/05 06:56:14;;;;;;;;;;;;;;;34.26;53.85;100256.00;5124987;27;66304;-36
2023/05/05 06:58:45;;;;;;;;;;;;;;;34.28;53.66;100257.66;5120999;27;69669;-37
2023/05/05 07:01:15;;;;;;;;;;;;;;;34.28;53.83;100242.13;5124800;27;66207;-36
2023/05/05 07:03:46;;;;;;;;;;;;;;;34.29;53.83;100242.94;5118798;27;70153;-38
2023/05/05 07:06:16;;;;;;;;;;;;;;;34.30;53.71;100239.13;5124988;27;66529;-35
2023/05/05 07:08:46;;;;;;;;;;;;;;;34.29;53.84;100234.78;5115142;27;70561;-36
2023/05/05 07:11:16;;;;;;;;;;;;;;;34.30;53.85;100230.97;5126828;27;66971;-36
2023/05/05 07:13:49;;;;;;;;;;;;;;;34.30;53.87;100223.63;5120097;27;70542;-38
2023/05/05 07:16:19;;;;;;;;;;;;;;;34.31;53.46;100219.81;5096525;27;66341;-36
2023/05/05 07:18:50;;;;;;;;;;;;;;;34.31;53.35;100213.56;5108953;27;70604;-36
2023/05/05 07:21:20;;;;;;;;;;;;;;;34.33;53.38;100216.84;5118069;27;67028;-37
2023/05/05 07:23:51;;;;;;;;;;;;;;;34.32;53.75;100209.75;5120421;27;70178;-37
2023/05/05 07:26:21;;;;;;;;;;;;;;;34.32;53.35;100198.88;5119384;27;66786;-38
2023/05/05 07:28:51;;;;;;;;;;;;;;;34.31;53.89;100194.50;5126379;27;69901;-37
2023/05/05 07:31:22;;;;;;;;;;;;;;;34.33;53.86;100192.34;5111320;27;66871;-37
2023/05/05 07:33:52;;;;;;;;;;;;;;;34.33;53.77;100178.75;5122556;27;70707;-39
2023/05/05 07:36:22;;;;;;;;;;;;;;;34.33;53.69;100178.75;5113931;27;65197;-37
2023/05/05 07:38:52;;;;;;;;;;;;;;;34.33;53.43;100184.19;5127099;27;68928;-36
2023/05/05 07:41:23;;;;;;;;;;;;;;;34.33;53.75;100167.84;5119134;27;67224;-37
2023/05/05 07:43:53;;;;;;;;;;;;;;;34.34;53.87;100169.47;5129176;27;70103;-36
2023/05/05 07:46:24;;;;;;;;;;;;;;;34.33;53.44;100167.84;5120462;27;66122;-36
2023/05/05 07:48:54;;;;;;;;;;;;;;;34.34;53.42;100164.84;5108461;27;70556;-37
2023/05/05 07:51:25;;;;;;;;;;;;;;;34.34;53.95;100159.41;5126575;27;66722;-37
2023/05/05 07:53:55;;;;;;;;;;;;;;;34.35;54.21;100152.06;5125779;27;70955;-36
2023/05/05 07:56:25;;;;;;;;;;;;;;;34.35;53.92;100154.78;5111891;27;66400;-37
2023/05/05 07:58:55;;;;;;;;;;;;;;;34.35;54.25;100152.91;5127599;27;69813;-36
2023/05/05 08:01:25;;;;;;;;;;;;;;;34.34;53.97;100148.53;5101531;27;67517;-37
2023/05/05 08:03:56;;;;;;;;;;;;;;;34.34;54.39;100142.25;5105429;27;69772;-36
2023/05/05 08:06:27;;;;;;;;;;;;;;;34.33;54.08;100146.06;5128708;27;66552;-37
2023/05/05 08:09:01;;;;;;;;;;;;;;;34.34;54.45;100150.44;5119900;27;69064;-36
2023/05/05 08:11:31;;;;;;;;;;;;;;;34.33;54.69;100156.97;5127838;27;66018;-37
2023/05/05 08:14:01;;;;;;;;;;;;;;;34.33;55.15;100151.53;5122574;27;68583;-38
2023/05/05 08:16:31;;;;;;;;;;;;;;;34.32;55.52;100150.69;5122206;27;66263;-38
2023/05/05 08:19:02;;;;;;;;;;;;;;;34.31;56.05;100150.94;5125750;27;70578;-37
2023/05/05 08:21:42;;;;;;;;;;;;;;;34.31;55.62;100156.41;5124512;27;66458;-39
2023/05/05 08:24:12;;;;;;;;;;;;;;;34.29;56.17;100155.81;5123479;27;70945;-39
2023/05/05 08:26:42;;;;;;;;;;;;;;;34.29;56.68;100170.25;5122779;27;66478;-36
2023/05/05 08:29:12;;;;;;;;;;;;;;;34.29;56.94;100174.88;5126672;27;69083;-36
2023/05/05 08:31:43;;;;;;;;;;;;;;;34.25;57.25;100160.97;5123050;27;64771;-36
2023/05/05 08:34:13;;;;;;;;;;;;;;;34.23;57.34;100147.63;5126918;27;70404;-37
2023/05/05 08:36:43;;;;;;;;;;;;;;;34.21;57.43;100133.47;5121146;27;66195;-37
2023/05/05 08:39:13;;;;;;;;;;;;;;;34.19;57.56;100119.28;5122290;27;70247;-38
2023/05/05 08:41:44;;;;;;;;;;;;;;;34.18;57.23;100128.53;5121549;27;66098;-35
2023/05/05 08:44:14;;;;;;;;;;;;;;;34.17;57.42;100124.16;5124698;27;69080;-36
2023/05/05 08:46:45;;;;;;;;;;;;;;;34.17;57.53;100120.63;5123533;27;65737;-36
2023/05/05 08:49:16;;;;;;;;;;;;;;;34.16;57.56;100097.22;5124365;27;69522;-37
2023/05/05 08:51:47;;;;;;;;;;;;;;;34.16;57.41;100092.59;5124547;27;66267;-37
2023/05/05 08:54:19;;;;;;;;;;;;;;;34.15;57.32;100090.94;5123764;27;69781;-37
2023/05/05 08:56:52;;;;;;;;;;;;;;;34.14;57.25;100083.88;5123546;27;66713;-36
2023/05/05 08:59:24;;;;;;;;;;;;;;;34.14;57.27;100077.59;5120541;27;69851;-37
2023/05/05 09:01:55;;;;;;;;;;;;;;;34.14;57.41;100083.06;5123025;27;66649;-36
2023/05/05 09:04:25;;;;;;;;;;;;;;;34.12;57.52;100086.03;5101375;27;70142;-36
2023/05/05 09:06:58;;;;;;;;;;;;;;;34.11;57.35;100078.94;5125899;27;66986;-36
2023/05/05 09:09:29;;;;;;;;;;;;;;;34.10;57.76;100082.75;5127127;27;70327;-36
2023/05/05 09:12:00;;;;;;;;;;;;;;;34.11;57.80;100084.41;5128371;27;67090;-36
2023/05/05 09:14:30;;;;;;;;;;;;;;;34.11;57.39;100073.50;5116253;27;69736;-38
2023/05/05 09:17:02;;;;;;;;;;;;;;;34.09;57.73;100075.66;5116362;27;66192;-40
2023/05/05 09:19:32;;;;;;;;;;;;;;;34.08;57.55;100078.66;5107981;27;69298;-35
2023/05/05 09:22:02;;;;;;;;;;;;;;;34.07;57.81;100083.25;5137462;27;67159;-35
2023/05/05 09:24:33;;;;;;;;;;;;;;;34.06;58.29;100076.19;5126410;27;70374;-37
2023/05/05 09:27:20;;;;;;;;;;;;;;;34.05;60.21;100071.84;5117112;27;64709;-36
2023/05/05 09:29:50;;;;;;;;;;;;;;;33.99;61.60;100075.56;5116668;27;69864;-36
2023/05/05 09:32:21;;;;;;;;;;;;;;;33.98;61.99;100076.63;5123403;27;66596;-36
2023/05/05 09:34:58;;;;;;;;;;;;;;;33.93;62.80;100079.31;5124969;27;70268;-36
2023/05/05 09:37:29;;;;;;;;;;;;;;;33.90;63.10;100083.38;5119920;27;65232;-37
2023/05/05 09:40:00;;;;;;;;;;;;;;;33.87;63.48;100093.97;5097753;27;69413;-36
2023/05/05 09:42:30;;;;;;;;;;;;;;;33.83;64.17;100099.13;5118128;27;66131;-37
2023/05/05 09:45:01;;;;;;;;;;;;;;;33.83;64.25;100088.22;5114159;27;69066;-36
2023/05/05 09:47:35;;;;;;;;;;;;;;;33.84;63.81;100099.94;5097893;27;66299;-37
2023/05/05 09:50:06;;;;;;;;;;;;;;;33.79;64.63;100104.25;5121115;27;70537;-36
2023/05/05 09:52:36;;;;;;;;;;;;;;;33.82;64.26;100108.34;5131848;27;65904;-38
2023/05/05 09:55:16;;;;;;;;;;;;;;;33.93;64.02;100103.81;5121306;27;70593;-37
2023/05/05 09:57:47;;;;;;;;;;;;;;;33.93;64.11;100114.69;5131389;27;66709;-38
2023/05/05 10:00:17;;;;;;;;;;;;;;;33.90;64.43;100115.22;5130905;27;70708;-37
2023/05/05 10:02:48;;;;;;;;;;;;;;;33.90;64.35;100107.06;5128609;27;66356;-37
2023/05/05 10:05:18;;;;;;;;;;;;;;;33.90;64.76;100098.88;5114170;27;69764;-37
2023/05/05 10:07:48;;;;;;;;;;;;;;;33.89;64.46;100102.69;5124390;27;66747;-37
2023/05/05 10:10:19;;;;;;;;;;;;;;;33.89;64.42;100099.97;5130347;27;71121;-38
2023/05/05 10:12:49;;;;;;;;;;;;;;;33.43;65.11;100039.69;5130246;27;66987;-36
2023/05/05 10:15:21;;;;;;;;;;;;;;;33.88;64.73;100112.75;5073499;27;70290;-38
2023/05/05 10:17:53;;;;;;;;;;;;;;;33.87;65.08;100118.44;5130302;27;66219;-41
2023/05/05 10:20:38;;;;;;;;;;;;;;;33.89;64.96;100124.47;5128856;27;69800;-37
2023/05/05 10:23:10;;;;;;;;;;;;;;;33.89;64.89;100135.34;5133390;27;66194;-40
2023/05/05 10:25:49;;;;;;;;;;;;;;;33.90;65.26;100126.09;5106278;27;69848;-38
2023/05/05 10:28:23;;;;;;;;;;;;;;;33.88;65.51;100130.97;5132872;27;66389;-38
2023/05/05 10:30:56;;;;;;;;;;;;;;;33.89;65.20;100129.91;5129416;27;69795;-40
2023/05/05 10:33:30;;;;;;;;;;;;;;;33.88;64.98;100133.69;5131625;27;65404;-38
2023/05/05 10:36:01;;;;;;;;;;;;;;;33.88;64.85;100137.25;5128666;27;69841;-37
2023/05/05 10:38:34;;;;;;;;;;;;;;;33.87;65.33;100140.22;5112161;27;66444;-36
2023/05/05 10:41:06;;;;;;;;;;;;;;;33.87;64.92;100140.22;5087446;27;70349;-38
2023/05/05 10:43:36;;;;;;;;;;;;;;;33.86;65.21;100147.56;5128832;27;66508;-39
2023/05/05 10:46:08;;;;;;;;;;;;;;;33.88;65.10;100155.44;5116976;27;69697;-39
2023/05/05 10:48:59;;;;;;;;;;;;;;;33.86;65.54;100153.00;5109425;27;66288;-39
2023/05/05 10:51:50;;;;;;;;;;;;;;;33.85;65.54;100156.81;5125497;27;70080;-40
2023/05/05 10:54:26;;;;;;;;;;;;;;;33.85;66.11;100162.25;5112929;27;67081;-37
2023/05/05 10:57:01;;;;;;;;;;;;;;;33.87;66.10;100161.97;5122896;27;70632;-38
2023/05/05 10:59:37;;;;;;;;;;;;;;;33.89;66.44;100157.09;5096003;27;66306;-36
2023/05/05 11:02:26;;;;;;;;;;;;;;;33.86;67.10;100158.44;5130330;27;70608;-41
2023/05/05 11:05:04;;;;;;;;;;;;;;;33.87;66.89;100149.19;5122506;27;66112;-39
2023/05/05 11:07:35;;;;;;;;;;;;;;;33.91;66.14;100155.78;5126587;27;69898;-39
2023/05/05 11:10:06;;;;;;;;;;;;;;;33.95;65.80;100172.41;5088038;27;63234;-38
2023/05/05 11:12:58;;;;;;;;;;;;;;;33.98;65.60;100177.31;5112941;27;69155;-39
2023/05/05 11:15:28;;;;;;;;;;;;;;;34.03;65.62;100174.66;5126309;27;67065;-38
2023/05/05 11:18:02;;;;;;;;;;;;;;;34.06;66.13;100192.41;5123676;27;69119;-37
2023/05/05 11:20:42;;;;;;;;;;;;;;;34.07;66.30;100196.75;5131582;27;66820;-37
2023/05/05 11:23:12;;;;;;;;;;;;;;;34.08;65.52;100204.66;5113300;27;69500;-38
2023/05/05 11:25:44;;;;;;;;;;;;;;;33.91;65.96;100176.72;5128844;27;66367;-40
2023/05/05 11:28:15;;;;;;;;;;;;;;;34.11;65.70;100209.59;5124990;27;69928;-38
2023/05/05 11:30:55;;;;;;;;;;;;;;;34.12;65.69;100211.22;5131527;27;66691;-37
2023/05/05 11:33:27;;;;;;;;;;;;;;;34.11;65.91;100204.16;5125929;27;69127;-39
2023/05/05 11:35:59;;;;;;;;;;;;;;;34.10;65.87;100191.63;5126678;27;65398;-38
2023/05/05 11:38:35;;;;;;;;;;;;;;;34.10;65.53;100191.63;5128339;27;69967;-38
2023/05/05 11:41:13;;;;;;;;;;;;;;;34.09;65.93;100200.84;5109840;27;66672;-37
2023/05/05 11:43:43;;;;;;;;;;;;;;;34.11;66.05;100201.41;5127834;27;69690;-37
2023/05/05 11:46:14;;;;;;;;;;;;;;;34.11;66.12;100209.59;5099987;27;66517;-39
2023/05/05 11:48:45;;;;;;;;;;;;;;;34.10;66.22;100221.56;5113626;27;69749;-38
2023/05/05 11:51:16;;;;;;;;;;;;;;;34.10;66.18;100232.44;5124584;27;65555;-40
2023/05/05 11:53:47;;;;;;;;;;;;;;;34.12;65.80;100248.50;5128827;27;70296;-39
2023/05/05 11:56:23;;;;;;;;;;;;;;;34.11;66.66;100255.84;5124875;27;67625;-37
2023/05/05 11:59:08;;;;;;;;;;;;;;;34.08;66.05;100248.22;5121856;27;69633;-37
2023/05/05 12:01:42;;;;;;;;;;;;;;;34.08;66.77;100240.03;5126362;27;66677;-38
2023/05/05 12:04:12;;;;;;;;;;;;;;;34.07;66.69;100241.09;5123821;27;69112;-38
2023/05/05 12:06:44;;;;;;;;;;;;;;;34.08;66.70;100234.59;5119034;27;66214;-36
2023/05/05 12:09:23;;;;;;;;;;;;;;;34.07;66.92;100235.66;5122343;27;69192;-39
2023/05/05 12:11:54;;;;;;;;;;;;;;;34.07;66.90;100232.94;5122337;27;65492;-38
2023/05/05 12:14:25;;;;;;;;;;;;;;;34.06;66.97;100233.22;5103392;27;68906;-37
2023/05/05 12:17:02;;;;;;;;;;;;;;;34.35;67.59;100233.72;5123848;27;65796;-39
2023/05/05 12:19:32;;;;;;;;;;;;;;;34.20;68.28;100235.25;5132456;27;69317;-37
2023/05/05 12:22:04;;;;;;;;;;;;;;;34.02;67.91;100244.59;5127374;27;67571;-39
2023/05/05 12:24:34;;;;;;;;;;;;;;;33.91;68.07;100261.88;5121960;27;70304;-36
2023/05/05 12:27:07;;;;;;;;;;;;;;;33.84;67.96;100269.41;5126280;27;66071;-38
2023/05/05 12:29:38;;;;;;;;;;;;;;;33.78;67.58;100273.97;5124556;27;70309;-38
2023/05/05 12:32:17;;;;;;;;;;;;;;;33.72;67.11;100274.19;5105094;27;65460;-36
2023/05/05 12:34:48;;;;;;;;;;;;;;;33.61;66.90;100278.69;5107249;27;69681;-41
2023/05/05 12:37:19;;;;;;;;;;;;;;;33.58;66.73;100271.84;5126996;27;65252;-37
2023/05/05 12:39:49;;;;;;;;;;;;;;;33.52;66.61;100277.44;5086582;27;68910;-38
2023/05/05 12:42:21;;;;;;;;;;;;;;;33.38;67.73;100279.72;5125953;27;65575;-40
2023/05/05 12:44:51;;;;;;;;;;;;;;;33.34;67.60;100282.09;5091506;27;69161;-37
2023/05/05 12:47:31;;;;;;;;;;;;;;;33.38;67.47;100279.72;5103984;27;66933;-38
2023/05/05 12:50:02;;;;;;;;;;;;;;;33.43;67.31;100278.94;5129741;27;70374;-36
2023/05/05 12:52:39;;;;;;;;;;;;;;;33.48;66.90;100276.28;5119216;27;66672;-41
2023/05/05 12:55:10;;;;;;;;;;;;;;;33.51;66.84;100286.66;5130720;27;70446;-40
2023/05/05 12:58:00;;;;;;;;;;;;;;;33.54;66.70;100291.63;5121456;27;66063;-37
2023/05/05 13:00:30;;;;;;;;;;;;;;;33.58;66.36;100299.03;5128962;27;70465;-37
2023/05/05 13:03:01;;;;;;;;;;;;;;;33.62;66.44;100303.97;5106396;27;66024;-37